sensor_id;sensor_type;location;lat;lon;timestamp;temperature;humidity
28069;DHT22;15382;47.578;8.086;2022-08-21T00:01:00;16.20;99.90
28069;DHT22;15382;47.578;8.086;2022-08-21T00:11:04;16.30;99.90
28069;DHT22;15382;47.578;8.086;2022-08-21T00:21:05;16.10;99.90
28069;DHT22;15382;47.578;8.086;2022-08-21T00:31:06;16.30;99.90
28069;DHT22;15382;47.578;8.086;2022-08-21T00:41:10;15.80;99.90
28069;DHT22;15382;47.578;8.086;2022-08-21T00:51:18;15.40;99.90
28069;DHT22;15382;47.578;8.086;2022-08-21T01:01:23;15.30;99.90
28069;DHT22;15382;47.578;8.086;2022-08-21T01:11:25;15.30;99.90
28069;DHT22;15382;47.578;8.086;2022-08-21T01:21:27;15.50;99.90
28069;DHT22;15382;47.578;8.086;2022-08-21T01:31:29;15.60;99.90
28069;DHT22;15382;47.578;8.086;2022-08-21T01:41:30;15.50;99.90
28069;DHT22;15382;47.578;8.086;2022-08-21T01:51:30;15.60;99.90
28069;DHT22;15382;47.578;8.086;2022-08-21T02:01:31;15.20;99.90
28069;DHT22;15382;47.578;8.086;2022-08-21T02:11:35;15.00;99.90
28069;DHT22;15382;47.578;8.086;2022-08-21T02:21:36;15.10;99.90
28069;DHT22;15382;47.578;8.086;2022-08-21T02:31:37;15.10;99.90
28069;DHT22;15382;47.578;8.086;2022-08-21T02:41:37;15.00;99.90
28069;DHT22;15382;47.578;8.086;2022-08-21T02:51:38;14.90;99.90
28069;DHT22;15382;47.578;8.086;2022-08-21T03:01:39;14.70;99.90
28069;DHT22;15382;47.578;8.086;2022-08-21T03:11:40;14.90;99.90
28069;DHT22;15382;47.578;8.086;2022-08-21T03:21:40;15.10;99.90
28069;DHT22;15382;47.578;8.086;2022-08-21T03:31:41;15.10;99.90
28069;DHT22;15382;47.578;8.086;2022-08-21T03:41:42;14.80;99.90
28069;DHT22;15382;47.578;8.086;2022-08-21T03:51:43;14.90;99.90
28069;DHT22;15382;47.578;8.086;2022-08-21T04:01:52;14.80;99.90
28069;DHT22;15382;47.578;8.086;2022-08-21T04:11:54;14.50;99.90
28069;DHT22;15382;47.578;8.086;2022-08-21T04:21:54;14.00;99.90
28069;DHT22;15382;47.578;8.086;2022-08-21T04:31:55;14.10;99.90
28069;DHT22;15382;47.578;8.086;2022-08-21T04:41:56;13.90;99.90
28069;DHT22;15382;47.578;8.086;2022-08-21T04:51:57;13.60;99.90
28069;DHT22;15382;47.578;8.086;2022-08-21T05:01:58;13.80;99.90
28069;DHT22;15382;47.578;8.086;2022-08-21T05:12:01;14.30;99.90
28069;DHT22;15382;47.578;8.086;2022-08-21T05:22:04;14.70;99.90
28069;DHT22;15382;47.578;8.086;2022-08-21T05:32:12;14.90;99.90
28069;DHT22;15382;47.578;8.086;2022-08-21T05:42:13;15.10;99.90
28069;DHT22;15382;47.578;8.086;2022-08-21T05:52:19;15.40;99.90
28069;DHT22;15382;47.578;8.086;2022-08-21T06:02:21;15.40;99.90
28069;DHT22;15382;47.578;8.086;2022-08-21T06:12:22;15.50;99.90
28069;DHT22;15382;47.578;8.086;2022-08-21T06:22:25;15.70;99.90
28069;DHT22;15382;47.578;8.086;2022-08-21T06:32:26;16.20;99.90
28069;DHT22;15382;47.578;8.086;2022-08-21T06:42:27;16.40;99.90
28069;DHT22;15382;47.578;8.086;2022-08-21T06:52:29;16.60;99.90
28069;DHT22;15382;47.578;8.086;2022-08-21T07:02:30;16.70;99.90
28069;DHT22;15382;47.578;8.086;2022-08-21T07:12:30;18.00;99.90
28069;DHT22;15382;47.578;8.086;2022-08-21T07:22:32;19.10;99.90
28069;DHT22;15382;47.578;8.086;2022-08-21T07:32:33;19.60;99.90
28069;DHT22;15382;47.578;8.086;2022-08-21T07:42:34;20.60;99.90
28069;DHT22;15382;47.578;8.086;2022-08-21T07:52:35;20.20;99.90
28069;DHT22;15382;47.578;8.086;2022-08-21T08:02:36;19.80;99.90
28069;DHT22;15382;47.578;8.086;2022-08-21T08:12:39;19.40;99.90
28069;DHT22;15382;47.578;8.086;2022-08-21T08:22:41;19.30;99.90
28069;DHT22;15382;47.578;8.086;2022-08-21T08:32:43;19.90;99.90
28069;DHT22;15382;47.578;8.086;2022-08-21T08:42:46;21.50;99.90
28069;DHT22;15382;47.578;8.086;2022-08-21T08:52:54;22.10;99.90
28069;DHT22;15382;47.578;8.086;2022-08-21T09:03:01;22.80;99.90
28069;DHT22;15382;47.578;8.086;2022-08-21T09:13:07;22.90;99.90
28069;DHT22;15382;47.578;8.086;2022-08-21T09:23:41;23.70;99.90
28069;DHT22;15382;47.578;8.086;2022-08-21T09:33:43;24.30;99.90
28069;DHT22;15382;47.578;8.086;2022-08-21T09:43:51;24.40;99.90
28069;DHT22;15382;47.578;8.086;2022-08-21T10:04:10;26.10;99.90
28069;DHT22;15382;47.578;8.086;2022-08-21T10:55:16;29.00;99.90
28069;DHT22;15382;47.578;8.086;2022-08-21T11:26:11;28.00;99.90
28069;DHT22;15382;47.578;8.086;2022-08-21T11:36:40;28.50;99.90
28069;DHT22;15382;47.578;8.086;2022-08-21T11:46:57;27.70;99.90
28069;DHT22;15382;47.578;8.086;2022-08-21T11:57:17;29.30;99.90
28069;DHT22;15382;47.578;8.086;2022-08-21T12:17:38;29.50;99.90
28069;DHT22;15382;47.578;8.086;2022-08-21T12:27:51;29.80;99.90
28069;DHT22;15382;47.578;8.086;2022-08-21T12:37:58;28.80;99.90
28069;DHT22;15382;47.578;8.086;2022-08-21T12:48:07;30.10;99.90
28069;DHT22;15382;47.578;8.086;2022-08-21T12:58:20;30.50;99.90
28069;DHT22;15382;47.578;8.086;2022-08-21T13:08:22;29.40;99.90
28069;DHT22;15382;47.578;8.086;2022-08-21T13:18:27;30.10;99.90
28069;DHT22;15382;47.578;8.086;2022-08-21T13:28:34;29.10;99.90
28069;DHT22;15382;47.578;8.086;2022-08-21T13:38:39;29.60;99.90
28069;DHT22;15382;47.578;8.086;2022-08-21T13:48:41;30.10;99.90
28069;DHT22;15382;47.578;8.086;2022-08-21T13:58:45;29.70;99.90
28069;DHT22;15382;47.578;8.086;2022-08-21T14:08:58;29.70;99.90
28069;DHT22;15382;47.578;8.086;2022-08-21T14:29:00;29.10;99.90
28069;DHT22;15382;47.578;8.086;2022-08-21T14:39:01;28.10;99.90
28069;DHT22;15382;47.578;8.086;2022-08-21T14:49:03;28.50;99.90
28069;DHT22;15382;47.578;8.086;2022-08-21T14:59:07;28.40;99.90
28069;DHT22;15382;47.578;8.086;2022-08-21T15:09:08;28.40;99.90
28069;DHT22;15382;47.578;8.086;2022-08-21T15:19:09;28.40;99.90
28069;DHT22;15382;47.578;8.086;2022-08-21T15:29:10;27.70;99.90
28069;DHT22;15382;47.578;8.086;2022-08-21T15:39:11;26.70;99.90
28069;DHT22;15382;47.578;8.086;2022-08-21T15:49:12;26.20;99.90
28069;DHT22;15382;47.578;8.086;2022-08-21T15:59:18;25.50;99.90
28069;DHT22;15382;47.578;8.086;2022-08-21T16:09:22;25.60;99.90
28069;DHT22;15382;47.578;8.086;2022-08-21T16:19:23;26.40;99.90
28069;DHT22;15382;47.578;8.086;2022-08-21T16:29:32;26.00;99.90
28069;DHT22;15382;47.578;8.086;2022-08-21T16:39:33;26.10;99.90
28069;DHT22;15382;47.578;8.086;2022-08-21T16:49:35;26.10;99.90
28069;DHT22;15382;47.578;8.086;2022-08-21T16:59:37;25.80;99.90
28069;DHT22;15382;47.578;8.086;2022-08-21T17:09:38;26.00;99.90
28069;DHT22;15382;47.578;8.086;2022-08-21T17:19:39;25.90;99.90
28069;DHT22;15382;47.578;8.086;2022-08-21T17:29:40;26.10;99.90
28069;DHT22;15382;47.578;8.086;2022-08-21T17:39:41;25.70;99.90
28069;DHT22;15382;47.578;8.086;2022-08-21T17:49:42;25.10;99.90
28069;DHT22;15382;47.578;8.086;2022-08-21T17:59:43;24.20;99.90
28069;DHT22;15382;47.578;8.086;2022-08-21T18:09:44;24.00;99.90
28069;DHT22;15382;47.578;8.086;2022-08-21T18:19:45;23.90;99.90
28069;DHT22;15382;47.578;8.086;2022-08-21T18:29:46;23.90;99.90
28069;DHT22;15382;47.578;8.086;2022-08-21T18:39:47;23.90;99.90
28069;DHT22;15382;47.578;8.086;2022-08-21T18:49:48;23.50;99.90
28069;DHT22;15382;47.578;8.086;2022-08-21T18:59:49;23.20;99.90
28069;DHT22;15382;47.578;8.086;2022-08-21T19:09:50;22.60;99.90
28069;DHT22;15382;47.578;8.086;2022-08-21T19:19:54;21.80;99.90
28069;DHT22;15382;47.578;8.086;2022-08-21T19:29:56;21.80;99.90
28069;DHT22;15382;47.578;8.086;2022-08-21T19:39:57;21.10;99.90
28069;DHT22;15382;47.578;8.086;2022-08-21T19:49:59;21.10;99.90
28069;DHT22;15382;47.578;8.086;2022-08-21T20:00:01;20.60;99.90
28069;DHT22;15382;47.578;8.086;2022-08-21T20:10:03;20.50;99.90
28069;DHT22;15382;47.578;8.086;2022-08-21T20:20:06;20.40;99.90
28069;DHT22;15382;47.578;8.086;2022-08-21T20:30:07;19.90;99.90
28069;DHT22;15382;47.578;8.086;2022-08-21T20:40:10;19.50;99.90
28069;DHT22;15382;47.578;8.086;2022-08-21T20:50:12;19.70;99.90
28069;DHT22;15382;47.578;8.086;2022-08-21T21:00:20;19.60;99.90
28069;DHT22;15382;47.578;8.086;2022-08-21T21:10:41;19.70;99.90
28069;DHT22;15382;47.578;8.086;2022-08-21T21:20:50;19.80;99.90
28069;DHT22;15382;47.578;8.086;2022-08-21T21:30:53;19.20;99.90
28069;DHT22;15382;47.578;8.086;2022-08-21T22:01:50;18.90;99.90
28069;DHT22;15382;47.578;8.086;2022-08-21T22:22:26;18.60;99.90
28069;DHT22;15382;47.578;8.086;2022-08-21T22:42:29;18.40;99.90
28069;DHT22;15382;47.578;8.086;2022-08-21T22:52:32;18.40;99.90
28069;DHT22;15382;47.578;8.086;2022-08-21T23:12:38;18.30;99.90
28069;DHT22;15382;47.578;8.086;2022-08-21T23:53:31;17.80;99.90
